sensor_id;sensor_type;location;lat;lon;timestamp;P1;durP1;ratioP1;P2;durP2;ratioP2
70433;SDS011;57876;47.792;12.960;2022-11-15T00:00:18;3.50;;;0.60;;
70433;SDS011;57876;47.792;12.960;2022-11-15T00:02:42;2.53;;;0.40;;
70433;SDS011;57876;47.792;12.960;2022-11-15T00:05:06;2.90;;;0.50;;
70433;SDS011;57876;47.792;12.960;2022-11-15T00:07:31;3.03;;;0.57;;
70433;SDS011;57876;47.792;12.960;2022-11-15T00:09:55;3.63;;;0.50;;
70433;SDS011;57876;47.792;12.960;2022-11-15T00:12:19;2.67;;;0.50;;
70433;SDS011;57876;47.792;12.960;2022-11-15T00:14:44;2.37;;;0.40;;
70433;SDS011;57876;47.792;12.960;2022-11-15T00:17:08;2.73;;;0.50;;
70433;SDS011;57876;47.792;12.960;2022-11-15T00:19:33;3.17;;;0.70;;
70433;SDS011;57876;47.792;12.960;2022-11-15T00:21:57;3.38;;;0.60;;
70433;SDS011;57876;47.792;12.960;2022-11-15T00:24:22;3.07;;;0.60;;
70433;SDS011;57876;47.792;12.960;2022-11-15T00:26:46;3.30;;;0.60;;
70433;SDS011;57876;47.792;12.960;2022-11-15T00:29:10;3.20;;;0.50;;
70433;SDS011;57876;47.792;12.960;2022-11-15T00:31:35;3.03;;;0.60;;
70433;SDS011;57876;47.792;12.960;2022-11-15T00:33:59;2.60;;;0.50;;
70433;SDS011;57876;47.792;12.960;2022-11-15T00:36:23;2.75;;;0.50;;
70433;SDS011;57876;47.792;12.960;2022-11-15T00:38:48;3.30;;;0.53;;
70433;SDS011;57876;47.792;12.960;2022-11-15T00:41:12;3.07;;;0.50;;
70433;SDS011;57876;47.792;12.960;2022-11-15T00:43:36;2.87;;;0.50;;
70433;SDS011;57876;47.792;12.960;2022-11-15T00:46:01;2.97;;;0.60;;
70433;SDS011;57876;47.792;12.960;2022-11-15T00:48:26;3.08;;;0.50;;
70433;SDS011;57876;47.792;12.960;2022-11-15T00:50:50;2.73;;;0.50;;
70433;SDS011;57876;47.792;12.960;2022-11-15T00:53:15;2.53;;;0.50;;
70433;SDS011;57876;47.792;12.960;2022-11-15T00:55:40;2.72;;;0.50;;
70433;SDS011;57876;47.792;12.960;2022-11-15T00:58:04;2.90;;;0.50;;
70433;SDS011;57876;47.792;12.960;2022-11-15T01:00:29;2.65;;;0.40;;
70433;SDS011;57876;47.792;12.960;2022-11-15T01:02:53;2.63;;;0.50;;
70433;SDS011;57876;47.792;12.960;2022-11-15T01:05:17;2.43;;;0.43;;
70433;SDS011;57876;47.792;12.960;2022-11-15T01:07:42;2.70;;;0.40;;
70433;SDS011;57876;47.792;12.960;2022-11-15T01:10:06;3.53;;;0.73;;
70433;SDS011;57876;47.792;12.960;2022-11-15T01:12:31;2.87;;;0.60;;
70433;SDS011;57876;47.792;12.960;2022-11-15T01:14:56;3.25;;;0.60;;
70433;SDS011;57876;47.792;12.960;2022-11-15T01:17:20;2.77;;;0.40;;
70433;SDS011;57876;47.792;12.960;2022-11-15T01:19:44;3.23;;;0.50;;
70433;SDS011;57876;47.792;12.960;2022-11-15T01:22:09;3.00;;;0.50;;
70433;SDS011;57876;47.792;12.960;2022-11-15T01:24:33;3.03;;;0.50;;
70433;SDS011;57876;47.792;12.960;2022-11-15T01:26:57;2.37;;;0.40;;
70433;SDS011;57876;47.792;12.960;2022-11-15T01:29:22;2.67;;;0.57;;
70433;SDS011;57876;47.792;12.960;2022-11-15T01:31:46;3.00;;;0.57;;
70433;SDS011;57876;47.792;12.960;2022-11-15T01:34:10;2.20;;;0.40;;
70433;SDS011;57876;47.792;12.960;2022-11-15T01:36:35;2.30;;;0.40;;
70433;SDS011;57876;47.792;12.960;2022-11-15T01:38:59;2.70;;;0.53;;
70433;SDS011;57876;47.792;12.960;2022-11-15T01:41:28;3.28;;;0.63;;
70433;SDS011;57876;47.792;12.960;2022-11-15T01:44:42;2.97;;;0.50;;
70433;SDS011;57876;47.792;12.960;2022-11-15T01:47:13;2.90;;;0.52;;
70433;SDS011;57876;47.792;12.960;2022-11-15T01:49:45;3.05;;;0.50;;
70433;SDS011;57876;47.792;12.960;2022-11-15T01:52:22;2.85;;;0.40;;
70433;SDS011;57876;47.792;12.960;2022-11-15T01:54:51;2.80;;;0.45;;
70433;SDS011;57876;47.792;12.960;2022-11-15T01:57:19;2.23;;;0.50;;
70433;SDS011;57876;47.792;12.960;2022-11-15T01:59:44;2.70;;;0.50;;
70433;SDS011;57876;47.792;12.960;2022-11-15T02:02:09;3.00;;;0.60;;
70433;SDS011;57876;47.792;12.960;2022-11-15T02:04:35;2.70;;;0.50;;
70433;SDS011;57876;47.792;12.960;2022-11-15T02:07:04;2.95;;;0.50;;
70433;SDS011;57876;47.792;12.960;2022-11-15T02:09:30;2.65;;;0.52;;
70433;SDS011;57876;47.792;12.960;2022-11-15T02:11:54;3.03;;;0.60;;
70433;SDS011;57876;47.792;12.960;2022-11-15T02:14:19;2.70;;;0.50;;
70433;SDS011;57876;47.792;12.960;2022-11-15T02:28:20;2.50;;;0.40;;
70433;SDS011;57876;47.792;12.960;2022-11-15T02:31:11;3.13;;;0.50;;
70433;SDS011;57876;47.792;12.960;2022-11-15T02:34:46;2.70;;;0.50;;
70433;SDS011;57876;47.792;12.960;2022-11-15T02:36:47;2.58;;;0.50;;
70433;SDS011;57876;47.792;12.960;2022-11-15T02:42:04;3.03;;;0.57;;
70433;SDS011;57876;47.792;12.960;2022-11-15T02:44:53;2.60;;;0.50;;
70433;SDS011;57876;47.792;12.960;2022-11-15T02:47:20;3.00;;;0.50;;
70433;SDS011;57876;47.792;12.960;2022-11-15T02:49:47;3.10;;;0.60;;
70433;SDS011;57876;47.792;12.960;2022-11-15T02:52:19;2.88;;;0.50;;
70433;SDS011;57876;47.792;12.960;2022-11-15T02:54:55;2.95;;;0.60;;
70433;SDS011;57876;47.792;12.960;2022-11-15T03:05:04;1.95;;;0.40;;
70433;SDS011;57876;47.792;12.960;2022-11-15T03:10:24;2.80;;;0.60;;
70433;SDS011;57876;47.792;12.960;2022-11-15T03:12:57;2.80;;;0.50;;
70433;SDS011;57876;47.792;12.960;2022-11-15T03:15:43;2.92;;;0.60;;
70433;SDS011;57876;47.792;12.960;2022-11-15T03:18:21;2.58;;;0.40;;
70433;SDS011;57876;47.792;12.960;2022-11-15T03:20:52;2.08;;;0.45;;
70433;SDS011;57876;47.792;12.960;2022-11-15T03:23:18;3.03;;;0.50;;
70433;SDS011;57876;47.792;12.960;2022-11-15T03:25:44;2.77;;;0.50;;
70433;SDS011;57876;47.792;12.960;2022-11-15T03:28:22;2.88;;;0.55;;
70433;SDS011;57876;47.792;12.960;2022-11-15T03:30:50;2.30;;;0.40;;
70433;SDS011;57876;47.792;12.960;2022-11-15T03:33:17;3.05;;;0.60;;
70433;SDS011;57876;47.792;12.960;2022-11-15T03:35:44;2.60;;;0.50;;
70433;SDS011;57876;47.792;12.960;2022-11-15T03:38:17;2.70;;;0.50;;
70433;SDS011;57876;47.792;12.960;2022-11-15T03:40:54;2.50;;;0.40;;
70433;SDS011;57876;47.792;12.960;2022-11-15T03:46:05;2.00;;;0.40;;
70433;SDS011;57876;47.792;12.960;2022-11-15T03:48:36;1.85;;;0.40;;
70433;SDS011;57876;47.792;12.960;2022-11-15T03:51:05;2.58;;;0.38;;
70433;SDS011;57876;47.792;12.960;2022-11-15T03:53:30;2.83;;;0.50;;
70433;SDS011;57876;47.792;12.960;2022-11-15T03:55:55;2.72;;;0.50;;
70433;SDS011;57876;47.792;12.960;2022-11-15T03:58:20;2.60;;;0.50;;
70433;SDS011;57876;47.792;12.960;2022-11-15T04:00:44;2.33;;;0.50;;
70433;SDS011;57876;47.792;12.960;2022-11-15T04:03:08;2.63;;;0.50;;
70433;SDS011;57876;47.792;12.960;2022-11-15T04:05:33;2.50;;;0.40;;
70433;SDS011;57876;47.792;12.960;2022-11-15T04:07:57;2.77;;;0.50;;
70433;SDS011;57876;47.792;12.960;2022-11-15T04:10:22;2.50;;;0.50;;
70433;SDS011;57876;47.792;12.960;2022-11-15T04:12:46;3.15;;;0.50;;
70433;SDS011;57876;47.792;12.960;2022-11-15T04:15:12;2.53;;;0.43;;
70433;SDS011;57876;47.792;12.960;2022-11-15T04:17:48;2.17;;;0.45;;
70433;SDS011;57876;47.792;12.960;2022-11-15T04:20:15;2.70;;;0.50;;
70433;SDS011;57876;47.792;12.960;2022-11-15T04:22:59;2.70;;;0.50;;
70433;SDS011;57876;47.792;12.960;2022-11-15T04:25:44;3.17;;;0.50;;
70433;SDS011;57876;47.792;12.960;2022-11-15T04:28:09;2.43;;;0.70;;
70433;SDS011;57876;47.792;12.960;2022-11-15T04:30:34;2.45;;;0.50;;
70433;SDS011;57876;47.792;12.960;2022-11-15T04:32:58;2.40;;;0.40;;
70433;SDS011;57876;47.792;12.960;2022-11-15T04:35:23;2.75;;;0.57;;
70433;SDS011;57876;47.792;12.960;2022-11-15T04:37:47;2.90;;;0.60;;
70433;SDS011;57876;47.792;12.960;2022-11-15T04:40:12;2.80;;;0.47;;
70433;SDS011;57876;47.792;12.960;2022-11-15T04:42:36;2.20;;;0.43;;
70433;SDS011;57876;47.792;12.960;2022-11-15T04:45:00;2.13;;;0.40;;
70433;SDS011;57876;47.792;12.960;2022-11-15T04:47:25;3.23;;;0.70;;
70433;SDS011;57876;47.792;12.960;2022-11-15T04:49:49;2.65;;;0.47;;
70433;SDS011;57876;47.792;12.960;2022-11-15T04:52:13;2.73;;;0.50;;
70433;SDS011;57876;47.792;12.960;2022-11-15T04:54:38;2.87;;;0.57;;
70433;SDS011;57876;47.792;12.960;2022-11-15T04:57:02;2.77;;;0.50;;
70433;SDS011;57876;47.792;12.960;2022-11-15T04:59:26;2.83;;;0.50;;
70433;SDS011;57876;47.792;12.960;2022-11-15T05:01:51;2.87;;;0.50;;
70433;SDS011;57876;47.792;12.960;2022-11-15T05:04:15;2.90;;;0.52;;
70433;SDS011;57876;47.792;12.960;2022-11-15T05:06:42;2.67;;;0.50;;
70433;SDS011;57876;47.792;12.960;2022-11-15T05:09:07;2.42;;;0.40;;
70433;SDS011;57876;47.792;12.960;2022-11-15T05:11:31;2.20;;;0.40;;
70433;SDS011;57876;47.792;12.960;2022-11-15T05:13:56;2.43;;;0.47;;
70433;SDS011;57876;47.792;12.960;2022-11-15T05:16:20;2.43;;;0.40;;
70433;SDS011;57876;47.792;12.960;2022-11-15T05:18:45;3.13;;;0.50;;
70433;SDS011;57876;47.792;12.960;2022-11-15T05:21:10;2.90;;;0.50;;
70433;SDS011;57876;47.792;12.960;2022-11-15T05:23:36;2.67;;;0.40;;
70433;SDS011;57876;47.792;12.960;2022-11-15T05:26:02;2.83;;;0.60;;
70433;SDS011;57876;47.792;12.960;2022-11-15T05:28:27;2.78;;;0.50;;
70433;SDS011;57876;47.792;12.960;2022-11-15T05:30:51;2.40;;;0.40;;
70433;SDS011;57876;47.792;12.960;2022-11-15T05:33:16;2.70;;;0.50;;
70433;SDS011;57876;47.792;12.960;2022-11-15T05:35:42;3.13;;;0.60;;
70433;SDS011;57876;47.792;12.960;2022-11-15T05:38:10;2.50;;;0.50;;
70433;SDS011;57876;47.792;12.960;2022-11-15T05:40:35;2.67;;;0.40;;
70433;SDS011;57876;47.792;12.960;2022-11-15T05:42:59;2.60;;;0.50;;
70433;SDS011;57876;47.792;12.960;2022-11-15T05:45:26;2.63;;;0.40;;
70433;SDS011;57876;47.792;12.960;2022-11-15T05:47:51;2.25;;;0.50;;
70433;SDS011;57876;47.792;12.960;2022-11-15T05:50:18;2.70;;;0.50;;
70433;SDS011;57876;47.792;12.960;2022-11-15T05:52:43;2.70;;;0.50;;
70433;SDS011;57876;47.792;12.960;2022-11-15T05:55:09;2.67;;;0.50;;
70433;SDS011;57876;47.792;12.960;2022-11-15T05:57:34;2.07;;;0.40;;
70433;SDS011;57876;47.792;12.960;2022-11-15T05:59:59;2.03;;;0.40;;
70433;SDS011;57876;47.792;12.960;2022-11-15T06:02:23;2.53;;;0.40;;
70433;SDS011;57876;47.792;12.960;2022-11-15T06:04:47;2.40;;;0.50;;
70433;SDS011;57876;47.792;12.960;2022-11-15T06:07:12;2.90;;;0.40;;
70433;SDS011;57876;47.792;12.960;2022-11-15T06:09:36;2.60;;;0.50;;
70433;SDS011;57876;47.792;12.960;2022-11-15T06:12:01;2.67;;;0.50;;
70433;SDS011;57876;47.792;12.960;2022-11-15T06:14:25;2.90;;;0.50;;
70433;SDS011;57876;47.792;12.960;2022-11-15T06:16:49;2.43;;;0.50;;
70433;SDS011;57876;47.792;12.960;2022-11-15T06:19:14;2.43;;;0.40;;
70433;SDS011;57876;47.792;12.960;2022-11-15T06:21:38;2.90;;;0.50;;
70433;SDS011;57876;47.792;12.960;2022-11-15T06:24:03;3.00;;;0.60;;
70433;SDS011;57876;47.792;12.960;2022-11-15T06:26:27;2.90;;;0.50;;
70433;SDS011;57876;47.792;12.960;2022-11-15T06:28:52;2.43;;;0.50;;
70433;SDS011;57876;47.792;12.960;2022-11-15T06:31:16;2.50;;;0.47;;
70433;SDS011;57876;47.792;12.960;2022-11-15T06:33:40;2.50;;;0.53;;
70433;SDS011;57876;47.792;12.960;2022-11-15T06:36:06;2.20;;;0.47;;
70433;SDS011;57876;47.792;12.960;2022-11-15T06:38:32;2.45;;;0.40;;
70433;SDS011;57876;47.792;12.960;2022-11-15T06:41:05;2.30;;;0.47;;
70433;SDS011;57876;47.792;12.960;2022-11-15T06:43:31;2.60;;;0.60;;
70433;SDS011;57876;47.792;12.960;2022-11-15T06:45:57;2.72;;;0.60;;
70433;SDS011;57876;47.792;12.960;2022-11-15T06:48:22;2.28;;;0.40;;
70433;SDS011;57876;47.792;12.960;2022-11-15T06:50:53;2.10;;;0.50;;
70433;SDS011;57876;47.792;12.960;2022-11-15T06:53:18;2.55;;;0.40;;
70433;SDS011;57876;47.792;12.960;2022-11-15T06:55:43;2.47;;;0.53;;
70433;SDS011;57876;47.792;12.960;2022-11-15T06:58:07;2.33;;;0.40;;
70433;SDS011;57876;47.792;12.960;2022-11-15T07:00:31;2.63;;;0.40;;
70433;SDS011;57876;47.792;12.960;2022-11-15T07:02:59;2.57;;;0.50;;
70433;SDS011;57876;47.792;12.960;2022-11-15T07:05:24;2.50;;;0.40;;
70433;SDS011;57876;47.792;12.960;2022-11-15T07:07:55;2.80;;;0.50;;
70433;SDS011;57876;47.792;12.960;2022-11-15T07:10:21;2.25;;;0.50;;
70433;SDS011;57876;47.792;12.960;2022-11-15T07:12:48;2.40;;;0.50;;
70433;SDS011;57876;47.792;12.960;2022-11-15T07:15:13;2.40;;;0.47;;
70433;SDS011;57876;47.792;12.960;2022-11-15T07:17:37;2.85;;;0.50;;
70433;SDS011;57876;47.792;12.960;2022-11-15T07:20:01;2.17;;;0.43;;
70433;SDS011;57876;47.792;12.960;2022-11-15T07:22:26;2.93;;;0.57;;
70433;SDS011;57876;47.792;12.960;2022-11-15T07:24:50;2.20;;;0.40;;
70433;SDS011;57876;47.792;12.960;2022-11-15T07:27:15;2.25;;;0.40;;
70433;SDS011;57876;47.792;12.960;2022-11-15T07:29:39;2.87;;;0.50;;
70433;SDS011;57876;47.792;12.960;2022-11-15T07:32:03;3.27;;;0.53;;
70433;SDS011;57876;47.792;12.960;2022-11-15T07:34:28;1.77;;;0.37;;
70433;SDS011;57876;47.792;12.960;2022-11-15T07:36:52;2.60;;;0.50;;
70433;SDS011;57876;47.792;12.960;2022-11-15T07:39:17;1.80;;;0.30;;
70433;SDS011;57876;47.792;12.960;2022-11-15T07:41:41;2.50;;;0.40;;
70433;SDS011;57876;47.792;12.960;2022-11-15T07:44:07;2.70;;;0.50;;
70433;SDS011;57876;47.792;12.960;2022-11-15T07:46:31;2.57;;;0.47;;
70433;SDS011;57876;47.792;12.960;2022-11-15T07:48:56;2.10;;;0.30;;
70433;SDS011;57876;47.792;12.960;2022-11-15T07:51:21;2.60;;;0.40;;
70433;SDS011;57876;47.792;12.960;2022-11-15T07:53:45;2.53;;;0.50;;
70433;SDS011;57876;47.792;12.960;2022-11-15T07:56:10;2.63;;;0.50;;
70433;SDS011;57876;47.792;12.960;2022-11-15T07:58:35;2.45;;;0.40;;
70433;SDS011;57876;47.792;12.960;2022-11-15T08:01:03;2.00;;;0.32;;
70433;SDS011;57876;47.792;12.960;2022-11-15T08:03:28;2.23;;;0.40;;
70433;SDS011;57876;47.792;12.960;2022-11-15T08:05:52;2.40;;;0.47;;
70433;SDS011;57876;47.792;12.960;2022-11-15T08:08:17;2.63;;;0.30;;
70433;SDS011;57876;47.792;12.960;2022-11-15T08:10:41;2.03;;;0.40;;
70433;SDS011;57876;47.792;12.960;2022-11-15T08:13:08;2.67;;;0.50;;
70433;SDS011;57876;47.792;12.960;2022-11-15T08:15:34;2.40;;;0.50;;
70433;SDS011;57876;47.792;12.960;2022-11-15T08:18:01;2.65;;;0.50;;
70433;SDS011;57876;47.792;12.960;2022-11-15T08:20:28;1.75;;;0.32;;
70433;SDS011;57876;47.792;12.960;2022-11-15T08:22:59;1.75;;;0.40;;
70433;SDS011;57876;47.792;12.960;2022-11-15T08:25:25;2.57;;;0.50;;
70433;SDS011;57876;47.792;12.960;2022-11-15T08:27:52;2.50;;;0.50;;
70433;SDS011;57876;47.792;12.960;2022-11-15T08:30:20;2.45;;;0.50;;
70433;SDS011;57876;47.792;12.960;2022-11-15T08:32:45;2.40;;;0.40;;
70433;SDS011;57876;47.792;12.960;2022-11-15T08:35:11;2.28;;;0.40;;
70433;SDS011;57876;47.792;12.960;2022-11-15T08:37:35;2.97;;;0.50;;
70433;SDS011;57876;47.792;12.960;2022-11-15T08:40:00;1.97;;;0.40;;
70433;SDS011;57876;47.792;12.960;2022-11-15T08:42:24;2.13;;;0.40;;
70433;SDS011;57876;47.792;12.960;2022-11-15T08:44:48;1.70;;;0.30;;
70433;SDS011;57876;47.792;12.960;2022-11-15T08:47:13;1.60;;;0.30;;
70433;SDS011;57876;47.792;12.960;2022-11-15T08:49:37;2.27;;;0.40;;
70433;SDS011;57876;47.792;12.960;2022-11-15T08:52:02;2.30;;;0.43;;
70433;SDS011;57876;47.792;12.960;2022-11-15T08:54:26;2.83;;;0.40;;
70433;SDS011;57876;47.792;12.960;2022-11-15T08:56:51;2.13;;;0.40;;
70433;SDS011;57876;47.792;12.960;2022-11-15T08:59:15;2.93;;;0.50;;
70433;SDS011;57876;47.792;12.960;2022-11-15T09:01:40;2.13;;;0.40;;
70433;SDS011;57876;47.792;12.960;2022-11-15T09:04:04;2.47;;;0.40;;
70433;SDS011;57876;47.792;12.960;2022-11-15T09:06:29;2.00;;;0.40;;
70433;SDS011;57876;47.792;12.960;2022-11-15T09:08:53;2.25;;;0.30;;
70433;SDS011;57876;47.792;12.960;2022-11-15T09:11:17;1.90;;;0.37;;
70433;SDS011;57876;47.792;12.960;2022-11-15T09:13:44;2.25;;;0.40;;
70433;SDS011;57876;47.792;12.960;2022-11-15T09:16:08;1.80;;;0.30;;
70433;SDS011;57876;47.792;12.960;2022-11-15T09:18:33;2.43;;;0.50;;
70433;SDS011;57876;47.792;12.960;2022-11-15T09:20:58;2.75;;;0.50;;
70433;SDS011;57876;47.792;12.960;2022-11-15T09:23:23;2.13;;;0.40;;
70433;SDS011;57876;47.792;12.960;2022-11-15T09:25:49;2.27;;;0.47;;
70433;SDS011;57876;47.792;12.960;2022-11-15T09:28:13;2.28;;;0.40;;
70433;SDS011;57876;47.792;12.960;2022-11-15T09:30:37;2.13;;;0.40;;
70433;SDS011;57876;47.792;12.960;2022-11-15T09:33:12;2.17;;;0.40;;
70433;SDS011;57876;47.792;12.960;2022-11-15T09:35:36;1.95;;;0.40;;
70433;SDS011;57876;47.792;12.960;2022-11-15T09:38:02;3.00;;;0.60;;
70433;SDS011;57876;47.792;12.960;2022-11-15T09:40:26;1.98;;;0.40;;
70433;SDS011;57876;47.792;12.960;2022-11-15T09:43:05;2.45;;;0.40;;
70433;SDS011;57876;47.792;12.960;2022-11-15T09:48:49;2.47;;;0.40;;
70433;SDS011;57876;47.792;12.960;2022-11-15T09:51:38;2.47;;;0.50;;
70433;SDS011;57876;47.792;12.960;2022-11-15T09:54:16;2.65;;;0.47;;
70433;SDS011;57876;47.792;12.960;2022-11-15T09:56:49;2.15;;;0.30;;
70433;SDS011;57876;47.792;12.960;2022-11-15T10:05:20;2.05;;;0.40;;
70433;SDS011;57876;47.792;12.960;2022-11-15T10:07:54;2.60;;;0.40;;
70433;SDS011;57876;47.792;12.960;2022-11-15T10:13:08;1.75;;;0.40;;
70433;SDS011;57876;47.792;12.960;2022-11-15T10:15:46;2.27;;;0.40;;
70433;SDS011;57876;47.792;12.960;2022-11-15T10:18:16;1.88;;;0.30;;
70433;SDS011;57876;47.792;12.960;2022-11-15T10:20:47;2.38;;;0.40;;
70433;SDS011;57876;47.792;12.960;2022-11-15T10:23:15;2.00;;;0.32;;
70433;SDS011;57876;47.792;12.960;2022-11-15T10:25:43;2.33;;;0.40;;
70433;SDS011;57876;47.792;12.960;2022-11-15T10:30:41;2.20;;;0.40;;
70433;SDS011;57876;47.792;12.960;2022-11-15T10:33:26;2.60;;;0.40;;
70433;SDS011;57876;47.792;12.960;2022-11-15T10:41:15;1.80;;;0.40;;
70433;SDS011;57876;47.792;12.960;2022-11-15T10:43:40;2.25;;;0.40;;
70433;SDS011;57876;47.792;12.960;2022-11-15T10:46:21;2.30;;;0.38;;
70433;SDS011;57876;47.792;12.960;2022-11-15T10:48:47;1.30;;;0.20;;
70433;SDS011;57876;47.792;12.960;2022-11-15T10:54:08;2.33;;;0.40;;
70433;SDS011;57876;47.792;12.960;2022-11-15T10:56:37;1.77;;;0.35;;
70433;SDS011;57876;47.792;12.960;2022-11-15T10:59:01;2.30;;;0.40;;
70433;SDS011;57876;47.792;12.960;2022-11-15T11:01:26;2.23;;;0.40;;
70433;SDS011;57876;47.792;12.960;2022-11-15T11:04:00;2.20;;;0.30;;
70433;SDS011;57876;47.792;12.960;2022-11-15T11:06:27;1.48;;;0.30;;
70433;SDS011;57876;47.792;12.960;2022-11-15T11:14:50;1.83;;;0.40;;
70433;SDS011;57876;47.792;12.960;2022-11-15T11:17:26;1.27;;;0.30;;
70433;SDS011;57876;47.792;12.960;2022-11-15T11:35:45;2.05;;;0.40;;
70433;SDS011;57876;47.792;12.960;2022-11-15T11:40:41;2.07;;;0.40;;
70433;SDS011;57876;47.792;12.960;2022-11-15T11:51:05;1.88;;;0.30;;
70433;SDS011;57876;47.792;12.960;2022-11-15T11:53:55;1.97;;;0.33;;
70433;SDS011;57876;47.792;12.960;2022-11-15T11:56:24;1.92;;;0.40;;
70433;SDS011;57876;47.792;12.960;2022-11-15T11:58:57;2.10;;;0.40;;
70433;SDS011;57876;47.792;12.960;2022-11-15T12:01:34;1.85;;;0.30;;
70433;SDS011;57876;47.792;12.960;2022-11-15T12:07:00;2.00;;;0.40;;
70433;SDS011;57876;47.792;12.960;2022-11-15T12:12:13;1.90;;;0.40;;
70433;SDS011;57876;47.792;12.960;2022-11-15T12:14:43;2.13;;;0.40;;
70433;SDS011;57876;47.792;12.960;2022-11-15T12:17:12;1.48;;;0.30;;
70433;SDS011;57876;47.792;12.960;2022-11-15T12:19:38;1.97;;;0.40;;
70433;SDS011;57876;47.792;12.960;2022-11-15T12:22:10;2.15;;;0.45;;
70433;SDS011;57876;47.792;12.960;2022-11-15T12:24:41;1.40;;;0.20;;
70433;SDS011;57876;47.792;12.960;2022-11-15T12:30:08;1.88;;;0.40;;
70433;SDS011;57876;47.792;12.960;2022-11-15T12:32:37;1.73;;;0.30;;
70433;SDS011;57876;47.792;12.960;2022-11-15T12:37:52;1.92;;;0.40;;
70433;SDS011;57876;47.792;12.960;2022-11-15T12:40:36;2.40;;;0.40;;
70433;SDS011;57876;47.792;12.960;2022-11-15T12:45:36;1.80;;;0.30;;
70433;SDS011;57876;47.792;12.960;2022-11-15T12:48:44;2.17;;;0.40;;
70433;SDS011;57876;47.792;12.960;2022-11-15T12:50:58;1.70;;;0.30;;
70433;SDS011;57876;47.792;12.960;2022-11-15T12:58:43;1.37;;;0.30;;
70433;SDS011;57876;47.792;12.960;2022-11-15T13:01:10;2.15;;;0.40;;
70433;SDS011;57876;47.792;12.960;2022-11-15T13:06:44;2.38;;;0.40;;
70433;SDS011;57876;47.792;12.960;2022-11-15T13:11:57;3.77;;;0.93;;
70433;SDS011;57876;47.792;12.960;2022-11-15T13:17:34;3.95;;;0.90;;
70433;SDS011;57876;47.792;12.960;2022-11-15T13:20:09;6.80;;;1.40;;
70433;SDS011;57876;47.792;12.960;2022-11-15T13:22:43;5.07;;;1.45;;
70433;SDS011;57876;47.792;12.960;2022-11-15T13:27:56;4.88;;;1.60;;
70433;SDS011;57876;47.792;12.960;2022-11-15T13:30:25;5.47;;;1.80;;
70433;SDS011;57876;47.792;12.960;2022-11-15T13:32:51;7.18;;;1.65;;
70433;SDS011;57876;47.792;12.960;2022-11-15T13:35:21;5.30;;;1.80;;
70433;SDS011;57876;47.792;12.960;2022-11-15T13:37:47;5.20;;;1.60;;
70433;SDS011;57876;47.792;12.960;2022-11-15T13:42:54;7.47;;;1.80;;
70433;SDS011;57876;47.792;12.960;2022-11-15T13:45:19;4.82;;;1.50;;
70433;SDS011;57876;47.792;12.960;2022-11-15T13:47:44;5.20;;;1.50;;
70433;SDS011;57876;47.792;12.960;2022-11-15T13:50:15;5.53;;;1.73;;
70433;SDS011;57876;47.792;12.960;2022-11-15T13:52:40;5.65;;;1.70;;
70433;SDS011;57876;47.792;12.960;2022-11-15T13:55:10;4.93;;;1.57;;
70433;SDS011;57876;47.792;12.960;2022-11-15T13:57:44;5.53;;;1.70;;
70433;SDS011;57876;47.792;12.960;2022-11-15T14:02:57;5.40;;;2.00;;
70433;SDS011;57876;47.792;12.960;2022-11-15T14:05:30;6.60;;;1.90;;
70433;SDS011;57876;47.792;12.960;2022-11-15T14:07:56;5.70;;;1.90;;
70433;SDS011;57876;47.792;12.960;2022-11-15T14:10:35;6.35;;;1.75;;
70433;SDS011;57876;47.792;12.960;2022-11-15T14:13:02;7.10;;;1.90;;
70433;SDS011;57876;47.792;12.960;2022-11-15T14:15:32;6.13;;;2.10;;
70433;SDS011;57876;47.792;12.960;2022-11-15T14:18:00;6.18;;;1.90;;
70433;SDS011;57876;47.792;12.960;2022-11-15T14:20:27;7.20;;;2.00;;
70433;SDS011;57876;47.792;12.960;2022-11-15T14:22:55;8.20;;;2.22;;
70433;SDS011;57876;47.792;12.960;2022-11-15T14:30:38;6.68;;;2.00;;
70433;SDS011;57876;47.792;12.960;2022-11-15T14:33:16;6.03;;;2.00;;
70433;SDS011;57876;47.792;12.960;2022-11-15T14:35:43;5.88;;;2.10;;
70433;SDS011;57876;47.792;12.960;2022-11-15T14:38:07;6.13;;;2.30;;
70433;SDS011;57876;47.792;12.960;2022-11-15T14:40:31;5.73;;;2.07;;
70433;SDS011;57876;47.792;12.960;2022-11-15T14:42:56;6.07;;;2.27;;
70433;SDS011;57876;47.792;12.960;2022-11-15T14:45:21;5.60;;;1.90;;
70433;SDS011;57876;47.792;12.960;2022-11-15T14:47:46;5.65;;;2.00;;
70433;SDS011;57876;47.792;12.960;2022-11-15T14:50:12;7.32;;;2.28;;
70433;SDS011;57876;47.792;12.960;2022-11-15T14:52:41;7.32;;;1.90;;
70433;SDS011;57876;47.792;12.960;2022-11-15T14:55:20;7.65;;;1.88;;
70433;SDS011;57876;47.792;12.960;2022-11-15T14:57:47;10.70;;;2.00;;
70433;SDS011;57876;47.792;12.960;2022-11-15T15:00:12;7.25;;;1.50;;
70433;SDS011;57876;47.792;12.960;2022-11-15T15:02:37;6.00;;;1.80;;
70433;SDS011;57876;47.792;12.960;2022-11-15T15:05:10;5.43;;;1.45;;
70433;SDS011;57876;47.792;12.960;2022-11-15T15:07:38;5.47;;;1.50;;
70433;SDS011;57876;47.792;12.960;2022-11-15T15:10:02;7.37;;;1.80;;
70433;SDS011;57876;47.792;12.960;2022-11-15T15:12:27;5.55;;;1.38;;
70433;SDS011;57876;47.792;12.960;2022-11-15T15:14:51;5.87;;;1.60;;
70433;SDS011;57876;47.792;12.960;2022-11-15T15:17:16;4.87;;;1.47;;
70433;SDS011;57876;47.792;12.960;2022-11-15T15:19:41;5.57;;;1.48;;
70433;SDS011;57876;47.792;12.960;2022-11-15T15:22:05;4.63;;;1.40;;
70433;SDS011;57876;47.792;12.960;2022-11-15T15:24:33;5.57;;;1.50;;
70433;SDS011;57876;47.792;12.960;2022-11-15T15:26:57;5.33;;;1.67;;
70433;SDS011;57876;47.792;12.960;2022-11-15T15:29:21;5.73;;;1.63;;
70433;SDS011;57876;47.792;12.960;2022-11-15T15:31:46;6.90;;;1.60;;
70433;SDS011;57876;47.792;12.960;2022-11-15T15:34:10;4.33;;;1.33;;
70433;SDS011;57876;47.792;12.960;2022-11-15T15:36:35;5.22;;;1.48;;
70433;SDS011;57876;47.792;12.960;2022-11-15T15:38:59;4.70;;;1.37;;
70433;SDS011;57876;47.792;12.960;2022-11-15T15:41:23;4.70;;;1.50;;
70433;SDS011;57876;47.792;12.960;2022-11-15T15:43:48;5.00;;;1.50;;
70433;SDS011;57876;47.792;12.960;2022-11-15T15:46:16;5.10;;;1.70;;
70433;SDS011;57876;47.792;12.960;2022-11-15T15:48:42;5.18;;;1.65;;
70433;SDS011;57876;47.792;12.960;2022-11-15T15:51:06;5.50;;;1.70;;
70433;SDS011;57876;47.792;12.960;2022-11-15T15:53:31;4.87;;;1.50;;
70433;SDS011;57876;47.792;12.960;2022-11-15T15:55:55;4.93;;;1.70;;
70433;SDS011;57876;47.792;12.960;2022-11-15T15:58:19;5.07;;;1.60;;
70433;SDS011;57876;47.792;12.960;2022-11-15T16:00:44;5.33;;;1.70;;
70433;SDS011;57876;47.792;12.960;2022-11-15T16:03:08;5.10;;;1.63;;
70433;SDS011;57876;47.792;12.960;2022-11-15T16:05:33;6.50;;;1.97;;
70433;SDS011;57876;47.792;12.960;2022-11-15T16:07:57;6.07;;;1.90;;
70433;SDS011;57876;47.792;12.960;2022-11-15T16:10:23;5.80;;;1.90;;
70433;SDS011;57876;47.792;12.960;2022-11-15T16:12:48;6.10;;;1.80;;
70433;SDS011;57876;47.792;12.960;2022-11-15T16:15:16;5.30;;;1.70;;
70433;SDS011;57876;47.792;12.960;2022-11-15T16:17:44;5.07;;;1.63;;
70433;SDS011;57876;47.792;12.960;2022-11-15T16:20:30;5.10;;;1.75;;
70433;SDS011;57876;47.792;12.960;2022-11-15T16:22:56;5.05;;;1.70;;
70433;SDS011;57876;47.792;12.960;2022-11-15T16:25:20;6.63;;;1.70;;
70433;SDS011;57876;47.792;12.960;2022-11-15T16:27:44;7.23;;;2.13;;
70433;SDS011;57876;47.792;12.960;2022-11-15T16:30:14;5.10;;;1.90;;
70433;SDS011;57876;47.792;12.960;2022-11-15T16:32:39;6.50;;;1.95;;
70433;SDS011;57876;47.792;12.960;2022-11-15T16:35:06;4.90;;;1.50;;
70433;SDS011;57876;47.792;12.960;2022-11-15T16:37:34;5.25;;;1.90;;